European Seaway — MPDG3 — position and weather

sailwx.info

Track history (hours):
 
Tides and Currents Weather Stations Pressure Air Temp Water Temp Dewpoint Dewpoint Depression Visibility Wind Speed Wind Dir Waves Ship Positions

European Seaway

Operator: P & O Ferries

Last reported at 2017-Jun-23 20:30 UTC. Time now 2017-Jun-23 20:28 UTC.
Position N 50°58' E 001°52'.

Length 179 m; draft 5.6 m.

Type: Passenger vessel. MMSI: 232001040.

Date/timePositionNaut miles runAvg speedWind from/ knotsBaromVisibWave heightAir tempDewpointWater temp
2017-Jun-23 20:30N 50°58' E 001°52'0 0.0
2017-Jun-23 20:00N 50°58' E 001°52'0 0.0
2017-Jun-23 19:30N 50°58' E 001°52'0 0.2
2017-Jun-23 19:00N 50°58' E 001°52'3 5.4
2017-Jun-23 18:30N 50°58' E 001°47'816.2
2017-Jun-23 18:00N 51°00' E 001°35'918.0
2017-Jun-23 17:31N 51°06' E 001°24'3 5.6
2017-Jun-23 17:00N 51°07' E 001°20'0 0.0
2017-Jun-23 16:30N 51°07' E 001°20'2 3.6
2017-Jun-23 16:00N 51°07' E 001°23'815.0
2017-Jun-23 15:30N 51°03' E 001°33'918.5
2017-Jun-23 15:01N 50°58' E 001°45'4 7.9
2017-Jun-23 14:30N 50°58' E 001°52'0 0.0
2017-Jun-23 14:00N 50°58' E 001°52'1 1.2
2017-Jun-23 13:31N 50°58' E 001°51'917.5
2017-Jun-23 13:01N 50°60' E 001°37'918.5
2017-Jun-23 12:31N 51°05' E 001°25'4 7.9
2017-Jun-23 12:00N 51°07' E 001°20'0 0.0
2017-Jun-23 11:30N 51°07' E 001°20'0 0.0
2017-Jun-23 11:00N 51°07' E 001°20'611.6
2017-Jun-23 10:30N 51°06' E 001°29'917.4
2017-Jun-23 10:00N 51°01' E 001°40'714.3
2017-Jun-23 09:30N 50°58' E 001°51'0 1.0
2017-Jun-23 09:00N 50°58' E 001°52'0 0.0
2017-Jun-23 08:30N 50°58' E 001°52'0 0.0
2017-Jun-23 08:00N 50°58' E 001°52'0 0.0
2017-Jun-23 07:30N 50°58' E 001°52'0 0.0
2017-Jun-23 07:00N 50°58' E 001°52'0 0.0
2017-Jun-23 06:30N 50°58' E 001°52'0 0.0
2017-Jun-23 06:00N 50°58' E 001°52'0 0.0
2017-Jun-23 05:30N 50°58' E 001°52'0 0.0
2017-Jun-23 05:00N 50°58' E 001°52'0 0.0
2017-Jun-23 04:30N 50°58' E 001°52'0 0.0
2017-Jun-23 04:00N 50°58' E 001°52'0 0.0
2017-Jun-23 03:30N 50°58' E 001°52'0 0.0
2017-Jun-23 03:00N 50°58' E 001°52'0 0.0
2017-Jun-23 02:30N 50°58' E 001°52'0 0.0
2017-Jun-23 02:00N 50°58' E 001°52'0 0.0
2017-Jun-23 01:30N 50°58' E 001°52'0 0.0
2017-Jun-23 01:00N 50°58' E 001°52'0 0.0
2017-Jun-23 00:30N 50°58' E 001°52'0 0.0
2017-Jun-23 00:00N 50°58' E 001°52'0 0.0
2017-Jun-22 23:30N 50°58' E 001°52'0 0.0
2017-Jun-22 23:00N 50°58' E 001°52'0 0.0
2017-Jun-22 22:30N 50°58' E 001°52'0 0.0
2017-Jun-22 22:00N 50°58' E 001°52'0 0.0
2017-Jun-22 21:30N 50°58' E 001°52'0 0.0
2017-Jun-22 21:00N 50°58' E 001°52'0 0.0
2017-Jun-22 20:30N 50°58' E 001°52'0 0.0
2017-Jun-22 20:00N 50°58' E 001°52'0 0.0
2017-Jun-22 19:30N 50°58' E 001°52'0 0.0
2017-Jun-22 19:00N 50°58' E 001°52'4 8.4
2017-Jun-22 18:31N 50°58' E 001°45'816.4
2017-Jun-22 18:00N 50°59' E 001°32'917.5
2017-Jun-22 17:30N 51°06' E 001°23'2 4.7
2017-Jun-22 17:00N 51°07' E 001°20'0 0.0
2017-Jun-22 16:30N 51°07' E 001°20'1 1.6
2017-Jun-22 16:01N 51°07' E 001°21'816.8
2017-Jun-22 15:31N 51°03' E 001°33'917.9
2017-Jun-22 15:00N 50°58' E 001°45'4 4.3
2017-Jun-22 14:00N 50°58' E 001°52'1 2.1
2017-Jun-22 13:30N 50°58' E 001°50'816.4
2017-Jun-22 13:00N 51°01' E 001°38'918.4
2017-Jun-22 12:30N 51°05' E 001°25'4 7.3
2017-Jun-22 12:00N 51°07' E 001°20'0 0.0
2017-Jun-22 11:30N 51°07' E 001°20'0 0.1
2017-Jun-22 11:00N 51°07' E 001°20'612.7
2017-Jun-22 10:30N 51°05' E 001°29'917.0
2017-Jun-22 10:00N 51°00' E 001°41'713.9
2017-Jun-22 09:31N 50°58' E 001°51'0 0.7
2017-Jun-22 09:01N 50°58' E 001°52'0 0.0
2017-Jun-22 08:31N 50°58' E 001°52'0 0.0
2017-Jun-22 08:01N 50°58' E 001°52'0 0.0
2017-Jun-22 07:30N 50°58' E 001°52'0 0.0
2017-Jun-22 07:00N 50°58' E 001°52'0 0.0
2017-Jun-22 06:30N 50°58' E 001°52'0 0.0
2017-Jun-22 06:01N 50°58' E 001°52'0 0.0
2017-Jun-22 05:30N 50°58' E 001°52'0 0.0
2017-Jun-22 05:01N 50°58' E 001°52'0 0.0
2017-Jun-22 04:30N 50°58' E 001°52'0 0.0
2017-Jun-22 04:00N 50°58' E 001°52'0 0.0
2017-Jun-22 03:30N 50°58' E 001°52'0 0.0
2017-Jun-22 03:00N 50°58' E 001°52'0 0.0
2017-Jun-22 02:31N 50°58' E 001°52'0 0.0
2017-Jun-22 02:01N 50°58' E 001°52'0 0.0
2017-Jun-22 01:31N 50°58' E 001°52'0 0.0
2017-Jun-22 01:01N 50°58' E 001°52'0 0.0
2017-Jun-22 00:31N 50°58' E 001°52'0 0.0
2017-Jun-22 00:01N 50°58' E 001°52'0 0.0
2017-Jun-21 23:31N 50°58' E 001°52'0 0.0
2017-Jun-21 23:01N 50°58' E 001°52'0 0.0
2017-Jun-21 22:30N 50°58' E 001°52'0 0.0
2017-Jun-21 22:01N 50°58' E 001°52'0 0.0
2017-Jun-21 21:30N 50°58' E 001°52'0 0.0
2017-Jun-21 21:00N 50°58' E 001°52'0 0.0
2017-Jun-21 20:31N 50°58' E 001°52'0 0.0
2017-Jun-21 20:01N 50°58' E 001°52'3 5.6
2017-Jun-21 19:31N 50°58' E 001°47'815.9
2017-Jun-21 19:00N 50°60' E 001°35'815.1
2017-Jun-21 18:30N 51°05' E 001°26'4 9.0
2017-Jun-21 18:01N 51°08' E 001°20'0 0.0
2017-Jun-21 17:30N 51°08' E 001°20'0 0.0
2017-Jun-21 17:01N 51°08' E 001°20'0 0.0
2017-Jun-21 16:31N 51°08' E 001°20'0 0.0
2017-Jun-21 16:00N 51°08' E 001°20'0 0.0
2017-Jun-21 15:30N 51°08' E 001°20'0 0.0
2017-Jun-21 15:00N 51°08' E 001°20'0 0.0
2017-Jun-21 14:00N 51°08' E 001°20'0 0.0
2017-Jun-21 13:30N 51°08' E 001°20'0 0.0
2017-Jun-21 13:01N 51°08' E 001°20'0 0.0
2017-Jun-21 12:31N 51°08' E 001°20'0 0.0
2017-Jun-21 12:00N 51°08' E 001°20'0 0.7
2017-Jun-21 11:30N 51°07' E 001°20'0 0.7
2017-Jun-21 11:00N 51°07' E 001°20'714.2
2017-Jun-21 10:30N 51°02' E 001°27'917.0
2017-Jun-21 10:00N 50°53' E 001°27'918.4
2017-Jun-21 09:30N 50°44' E 001°23'917.6
2017-Jun-21 09:00N 50°37' E 001°15'917.3
2017-Jun-21 08:30N 50°31' E 001°05'2617.0
2017-Jun-21 06:59N 50°23' E 000°27'817.1
2017-Jun-21 06:30N 50°21' E 000°14'817.1
2017-Jun-21 06:00N 50°19' E 000°01'1817.1
2017-Jun-21 04:59N 50°15' W 000°26'817.1
2017-Jun-21 04:30N 50°14' W 000°38'917.1
2017-Jun-21 04:00N 50°12' W 000°51'2217.2
2017-Jun-21 02:43N 50°07' W 001°25'417.4
2017-Jun-21 02:30N 50°06' W 001°31'917.6
2017-Jun-21 01:59N 50°04' W 001°44'918.0
2017-Jun-21 01:31N 50°01' W 001°57'917.8
2017-Jun-21 01:00N 49°59' W 002°10'917.4
2017-Jun-21 00:31N 49°56' W 002°23'713.4
2017-Jun-21 00:00N 49°55' W 002°33'612.0
2017-Jun-20 23:30N 49°53' W 002°42'611.8
2017-Jun-20 23:00N 49°51' W 002°51'612.0
2017-Jun-20 22:30N 49°50' W 002°60'612.4
2017-Jun-20 22:00N 49°48' W 003°09'612.6
2017-Jun-20 21:30N 49°48' W 003°19'612.5
2017-Jun-20 21:00N 49°48' W 003°29'612.8
2017-Jun-20 20:30N 49°48' W 003°39'613.0
2017-Jun-20 20:00N 49°49' W 003°49'713.1
2017-Jun-20 19:30N 49°49' W 003°59'713.2
2017-Jun-20 19:00N 49°49' W 004°09'713.4
2017-Jun-20 18:30N 49°49' W 004°19'713.5
2017-Jun-20 18:00N 49°48' W 004°30'713.5
2017-Jun-20 17:30N 49°48' W 004°40'713.6
2017-Jun-20 17:00N 49°49' W 004°51'713.9
2017-Jun-20 16:30N 49°49' W 005°01'714.2
2017-Jun-20 16:00N 49°49' W 005°12'714.3
2017-Jun-20 15:30N 49°49' W 005°24'714.3
2017-Jun-20 15:00N 49°49' W 005°35'1414.3
2017-Jun-20 14:00N 49°53' W 005°56'612.5
2017-Jun-20 13:30N 49°58' W 006°02'814.3
2017-Jun-20 12:57N 50°06' W 006°01'613.9
2017-Jun-20 12:30N 50°12' W 006°01'713.7
2017-Jun-20 12:01N 50°19' W 006°01'713.8
2017-Jun-20 11:30N 50°26' W 005°60'713.8
2017-Jun-20 11:00N 50°32' W 005°60'714.0
2017-Jun-20 10:30N 50°39' W 005°60'714.3
2017-Jun-20 10:01N 50°47' W 005°60'714.4
2017-Jun-20 09:31N 50°54' W 006°00'714.6
2017-Jun-20 09:01N 51°01' W 006°00'714.7
2017-Jun-20 08:31N 51°08' W 006°00'714.6
2017-Jun-20 08:00N 51°16' W 006°01'714.7
2017-Jun-20 07:30N 51°23' W 006°01'714.6
2017-Jun-20 07:00N 51°30' W 006°01'814.3
2017-Jun-20 06:27N 51°38' W 006°00'614.2
2017-Jun-20 06:01N 51°44' W 005°58'813.9
2017-Jun-20 05:27N 51°52' W 005°55'913.4
2017-Jun-20 04:49N 52°00' W 005°52'11214.3
2017-Jun-19 20:59N 53°50' W 005°16'814.8
2017-Jun-19 20:28N 53°58' W 005°14'714.7
2017-Jun-19 20:01N 54°04' W 005°12'714.7
2017-Jun-19 19:31N 54°11' W 005°10'714.6
2017-Jun-19 19:01N 54°19' W 005°08'714.7
2017-Jun-19 18:31N 54°26' W 005°08'714.2
2017-Jun-19 18:01N 54°33' W 005°13'815.4
2017-Jun-19 17:31N 54°39' W 005°20'816.0
2017-Jun-19 17:01N 54°45' W 005°28'815.8
2017-Jun-19 16:31N 54°50' W 005°39'510.5
2017-Jun-19 16:00N 54°51' W 005°48'0 0.6
2017-Jun-19 15:30N 54°51' W 005°48'0 0.0
2017-Jun-19 15:00N 54°51' W 005°48'0 0.0
2017-Jun-19 14:30N 54°51' W 005°48'0 0.0
2017-Jun-19 13:30N 54°51' W 005°48'0 0.0
2017-Jun-19 13:00N 54°51' W 005°48'0 0.0
2017-Jun-19 12:30N 54°51' W 005°48'0 0.0
2017-Jun-19 12:00N 54°51' W 005°48'0 0.0
2017-Jun-19 11:30N 54°51' W 005°48'0 0.0
2017-Jun-19 11:00N 54°51' W 005°48'0 0.0
2017-Jun-19 10:30N 54°51' W 005°48'0 0.0
2017-Jun-19 10:00N 54°51' W 005°48'0 0.0
2017-Jun-19 09:30N 54°51' W 005°48'0 0.2
2017-Jun-19 09:01N 54°51' W 005°48'0 0.1
2017-Jun-19 08:31N 54°51' W 005°48'1 2.4
2017-Jun-19 08:00N 54°52' W 005°47'1019.7
2017-Jun-19 07:30N 54°56' W 005°32'1019.8
2017-Jun-19 07:00N 55°00' W 005°16'815.0
2017-Jun-19 06:30N 54°59' W 005°03'2 3.6
2017-Jun-19 06:01N 54°58' W 005°01'0 0.0
2017-Jun-19 05:30N 54°58' W 005°01'0 0.0
2017-Jun-19 05:01N 54°58' W 005°01'5 7.9
2017-Jun-19 04:23N 55°02' W 005°06'717.6
2017-Jun-19 04:00N 54°59' W 005°17'918.8
2017-Jun-19 03:30N 54°55' W 005°32'1019.1
2017-Jun-19 03:00N 54°52' W 005°48'1 1.6
2017-Jun-19 02:31N 54°51' W 005°48'0 0.0
2017-Jun-19 02:00N 54°51' W 005°48'0 0.0
2017-Jun-19 01:30N 54°51' W 005°48'0 0.0
2017-Jun-19 01:01N 54°51' W 005°48'0 0.0
2017-Jun-19 00:30N 54°51' W 005°48'0 0.0
2017-Jun-19 00:00N 54°51' W 005°48'2 4.3
2017-Jun-18 23:30N 54°52' W 005°46'1019.3
2017-Jun-18 23:00N 54°58' W 005°31'1019.5
2017-Jun-18 22:30N 55°01' W 005°15'714.7
2017-Jun-18 22:00N 54°59' W 005°03'2 3.2
2017-Jun-18 21:30N 54°58' W 005°01'0 0.0
2017-Jun-18 21:01N 54°58' W 005°01'5 8.7
2017-Jun-18 20:28N 55°02' W 005°06'918.9
2017-Jun-18 20:01N 54°59' W 005°20'918.9
2017-Jun-18 19:31N 54°55' W 005°35'816.4
2017-Jun-18 19:01N 54°51' W 005°48'0 0.3
2017-Jun-18 18:30N 54°51' W 005°48'0 0.0
2017-Jun-18 18:00N 54°51' W 005°48'0 0.0
2017-Jun-18 17:30N 54°51' W 005°48'3 6.3
2017-Jun-18 17:00N 54°53' W 005°43'1019.1
2017-Jun-18 16:30N 54°57' W 005°28'1019.3
2017-Jun-18 16:00N 55°01' W 005°13'714.1
2017-Jun-18 15:30N 54°58' W 005°02'1 1.9
2017-Jun-18 15:00N 54°58' W 005°01'0 0.0
2017-Jun-18 14:00N 54°58' W 005°01'3 6.8
2017-Jun-18 13:30N 55°01' W 005°04'816.2
2017-Jun-18 13:00N 54°59' W 005°18'1019.0
2017-Jun-18 12:30N 54°55' W 005°33'918.0
2017-Jun-18 12:00N 54°51' W 005°48'0 0.9
2017-Jun-18 11:30N 54°51' W 005°48'0 0.0
2017-Jun-18 11:00N 54°51' W 005°48'0 0.0
2017-Jun-18 10:30N 54°51' W 005°48'0 0.0
2017-Jun-18 10:00N 54°51' W 005°48'0 0.0
2017-Jun-18 09:30N 54°51' W 005°48'0 0.0
2017-Jun-18 09:00N 54°51' W 005°48'0 0.0
2017-Jun-18 08:30N 54°51' W 005°48'2 3.8
2017-Jun-18 08:00N 54°52' W 005°46'1019.8
2017-Jun-18 07:30N 54°56' W 005°30'1019.2
2017-Jun-18 07:00N 55°00' W 005°15'714.8
2017-Jun-18 06:30N 54°59' W 005°03'1 3.0
2017-Jun-18 06:01N 54°58' W 005°01'0 0.0
2017-Jun-18 05:30N 54°58' W 005°01'0 0.0
2017-Jun-18 05:01N 54°58' W 005°01'0 0.0
2017-Jun-18 04:31N 54°58' W 005°01'0 0.0
2017-Jun-18 04:00N 54°58' W 005°01'0 0.0
2017-Jun-18 03:31N 54°58' W 005°01'0 0.0
2017-Jun-18 03:01N 54°58' W 005°01'0 0.0
2017-Jun-18 02:31N 54°58' W 005°01'0 0.0
2017-Jun-18 02:01N 54°58' W 005°01'0 0.0
2017-Jun-18 01:31N 54°58' W 005°01'0 0.0
2017-Jun-18 01:00N 54°58' W 005°01'0 0.0
2017-Jun-18 00:30N 54°58' W 005°01'0 0.0
2017-Jun-18 00:01N 54°58' W 005°01'0 0.0
2017-Jun-17 23:30N 54°58' W 005°01'0 0.0
2017-Jun-17 23:01N 54°58' W 005°01'0 0.0
2017-Jun-17 22:30N 54°58' W 005°01'0 0.0
2017-Jun-17 22:00N 54°58' W 005°01'0 0.0
2017-Jun-17 21:31N 54°58' W 005°01'0 0.0
2017-Jun-17 21:01N 54°58' W 005°01'5 9.6
2017-Jun-17 20:30N 55°02' W 005°06'1019.5
2017-Jun-17 20:00N 54°58' W 005°22'1019.3
2017-Jun-17 19:30N 54°54' W 005°37'713.8
2017-Jun-17 19:00N 54°51' W 005°48'0 0.0
2017-Jun-17 18:30N 54°51' W 005°48'0 0.0
2017-Jun-17 18:00N 54°51' W 005°48'0 0.0
2017-Jun-17 17:30N 54°51' W 005°48'4 7.5
2017-Jun-17 17:01N 54°53' W 005°43'1019.3
2017-Jun-17 16:31N 54°57' W 005°27'1019.3
2017-Jun-17 16:00N 55°01' W 005°12'713.8
2017-Jun-17 15:31N 54°58' W 005°01'0 0.4
2017-Jun-17 15:01N 54°58' W 005°01'1 1.9
2017-Jun-17 14:30N 54°58' W 005°02'1515.5
2017-Jun-17 13:30N 54°56' W 005°29'1019.6
2017-Jun-17 13:00N 54°52' W 005°45'2 4.7
2017-Jun-17 12:30N 54°51' W 005°48'0 0.0
2017-Jun-17 12:00N 54°51' W 005°48'0 0.0
2017-Jun-17 11:30N 54°51' W 005°48'3 6.9
2017-Jun-17 11:00N 54°53' W 005°43'918.4
2017-Jun-17 10:31N 54°57' W 005°29'918.2
2017-Jun-17 10:01N 55°00' W 005°14'714.2
2017-Jun-17 09:31N 54°59' W 005°02'1 2.4
2017-Jun-17 09:00N 54°58' W 005°01'0 0.0
2017-Jun-17 08:30N 54°58' W 005°01'5 8.4
2017-Jun-17 07:55N 55°02' W 005°06'819.1
2017-Jun-17 07:31N 54°59' W 005°19'1019.1
2017-Jun-17 07:01N 54°55' W 005°34'917.1
2017-Jun-17 06:30N 54°51' W 005°48'0 1.0
2017-Jun-17 06:00N 54°51' W 005°48'0 0.0
2017-Jun-17 05:30N 54°51' W 005°48'0 0.0
2017-Jun-17 05:00N 54°51' W 005°48'4 8.1
2017-Jun-17 04:30N 54°53' W 005°42'918.6
2017-Jun-17 04:00N 54°57' W 005°28'918.5
2017-Jun-17 03:30N 55°01' W 005°13'714.0
2017-Jun-17 03:00N 54°58' W 005°02'1 1.4
2017-Jun-17 02:30N 54°58' W 005°01'0 0.0
2017-Jun-17 02:00N 54°58' W 005°01'0 0.0
2017-Jun-17 01:30N 54°58' W 005°01'0 0.1
2017-Jun-17 01:00N 54°58' W 005°01'510.4
2017-Jun-17 00:31N 55°02' W 005°07'917.5
2017-Jun-17 00:00N 54°58' W 005°21'1019.7
2017-Jun-16 23:30N 54°54' W 005°36'714.9
2017-Jun-16 23:00N 54°51' W 005°48'0 0.0
2017-Jun-16 22:30N 54°51' W 005°48'0 0.0
2017-Jun-16 22:00N 54°51' W 005°48'0 0.0
2017-Jun-16 21:30N 54°51' W 005°48'0 0.0
2017-Jun-16 21:00N 54°51' W 005°48'3 5.0
2017-Jun-16 20:30N 54°53' W 005°45'918.9
2017-Jun-16 20:01N 54°57' W 005°30'918.6
2017-Jun-16 19:31N 55°00' W 005°15'714.4
2017-Jun-16 19:00N 54°59' W 005°03'2 3.4
2017-Jun-16 18:30N 54°58' W 005°01'0 0.0
2017-Jun-16 18:00N 54°58' W 005°01'0 0.0
2017-Jun-16 17:30N 54°58' W 005°01'5 7.1
2017-Jun-16 16:49N 55°02' W 005°06'619.1
2017-Jun-16 16:30N 54°59' W 005°16'1019.3
2017-Jun-16 16:00N 54°55' W 005°31'1019.3
2017-Jun-16 15:31N 54°52' W 005°47'1 3.0
2017-Jun-16 15:00N 54°51' W 005°48'3 2.8
2017-Jun-16 14:00N 54°53' W 005°44'918.6
2017-Jun-16 13:30N 54°57' W 005°30'1018.9
2017-Jun-16 13:00N 55°00' W 005°14'713.9
2017-Jun-16 12:30N 54°59' W 005°02'1 2.7
2017-Jun-16 12:00N 54°58' W 005°01'0 0.0
2017-Jun-16 11:30N 54°58' W 005°01'6 9.5
2017-Jun-16 10:55N 55°02' W 005°08'818.5
2017-Jun-16 10:30N 54°58' W 005°20'1019.9
2017-Jun-16 09:59N 54°54' W 005°37'714.9
2017-Jun-16 09:31N 54°51' W 005°48'0 0.2
2017-Jun-16 09:00N 54°51' W 005°48'0 0.0
2017-Jun-16 08:30N 54°51' W 005°48'5 9.6
2017-Jun-16 08:00N 54°53' W 005°41'918.3
2017-Jun-16 07:30N 54°57' W 005°26'917.8
2017-Jun-16 07:00N 55°01' W 005°12'714.1
2017-Jun-16 06:30N 54°58' W 005°01'0 0.6
2017-Jun-16 06:00N 54°58' W 005°01'0 0.0
2017-Jun-16 05:30N 54°58' W 005°01'0 0.3
2017-Jun-16 05:00N 54°58' W 005°01'611.9
2017-Jun-16 04:30N 55°02' W 005°09'1019.3
2017-Jun-16 04:01N 54°57' W 005°24'1019.1
2017-Jun-16 03:31N 54°54' W 005°39'611.1
2017-Jun-16 03:00N 54°51' W 005°48'0 0.0
2017-Jun-16 02:31N 54°51' W 005°48'0 0.0
2017-Jun-16 02:00N 54°51' W 005°48'0 0.0
2017-Jun-16 01:31N 54°51' W 005°48'0 0.0
2017-Jun-16 01:01N 54°51' W 005°48'4 8.3
2017-Jun-16 00:31N 54°53' W 005°42'918.3
2017-Jun-16 00:01N 54°58' W 005°28'918.5
2017-Jun-15 23:31N 55°01' W 005°13'713.1
2017-Jun-15 23:00N 54°59' W 005°02'1 2.6
2017-Jun-15 22:30N 54°58' W 005°01'0 0.0
2017-Jun-15 22:00N 54°58' W 005°01'0 0.0
2017-Jun-15 21:30N 54°58' W 005°01'0 0.0
2017-Jun-15 21:00N 54°58' W 005°01'5 8.9
2017-Jun-15 20:27N 55°02' W 005°07'818.5
2017-Jun-15 20:01N 54°59' W 005°20'1019.4
2017-Jun-15 19:31N 54°55' W 005°35'816.4
2017-Jun-15 19:00N 54°51' W 005°48'0 0.3
2017-Jun-15 18:30N 54°51' W 005°48'0 0.0
2017-Jun-15 18:00N 54°51' W 005°48'0 0.0
2017-Jun-15 17:30N 54°51' W 005°48'612.7
2017-Jun-15 17:00N 54°54' W 005°39'918.6
2017-Jun-15 16:30N 54°59' W 005°25'918.1
2017-Jun-15 16:00N 55°02' W 005°10'612.6
2017-Jun-15 15:30N 54°58' W 005°01'0 0.0
2017-Jun-15 15:00N 54°58' W 005°01'6 5.8
2017-Jun-15 14:00N 55°02' W 005°09'1019.6
2017-Jun-15 13:30N 54°57' W 005°24'1020.3
2017-Jun-15 13:00N 54°53' W 005°40'510.0
2017-Jun-15 12:30N 54°51' W 005°48'0 0.0
2017-Jun-15 12:00N 54°51' W 005°48'0 0.2
2017-Jun-15 11:30N 54°51' W 005°48'714.6
2017-Jun-15 11:00N 54°55' W 005°37'917.8
2017-Jun-15 10:30N 54°58' W 005°23'918.0
2017-Jun-15 10:00N 55°02' W 005°08'611.5
2017-Jun-15 09:30N 54°58' W 005°01'0 0.0
2017-Jun-15 09:00N 54°58' W 005°01'0 0.0
2017-Jun-15 08:30N 54°58' W 005°01'5 9.9
2017-Jun-15 07:58N 55°01' W 005°07'918.8
2017-Jun-15 07:30N 54°58' W 005°21'1019.2
2017-Jun-15 07:00N 54°54' W 005°37'714.3
2017-Jun-15 06:31N 54°51' W 005°48'0 0.1
2017-Jun-15 06:00N 54°51' W 005°48'0 0.0
2017-Jun-15 05:30N 54°51' W 005°48'0 0.4
2017-Jun-15 05:01N 54°51' W 005°48'815.5
2017-Jun-15 04:30N 54°55' W 005°36'918.0
2017-Jun-15 04:00N 54°59' W 005°22'917.7
2017-Jun-15 03:30N 55°02' W 005°07'611.2
2017-Jun-15 03:00N 54°58' W 005°01'0 0.0
2017-Jun-15 02:30N 54°58' W 005°01'0 0.0
2017-Jun-15 02:00N 54°58' W 005°01'0 0.0
2017-Jun-15 01:30N 54°58' W 005°01'0 0.1
2017-Jun-15 01:00N 54°58' W 005°01'5 9.0
2017-Jun-15 00:28N 55°02' W 005°06'817.9
2017-Jun-15 00:01N 54°58' W 005°19'1019.1
2017-Jun-14 23:30N 54°54' W 005°34'816.9
2017-Jun-14 23:00N 54°51' W 005°48'0 0.2
2017-Jun-14 22:30N 54°51' W 005°48'0 0.0
2017-Jun-14 22:01N 54°51' W 005°48'0 0.0
2017-Jun-14 21:30N 54°51' W 005°48'0 0.0
2017-Jun-14 21:01N 54°51' W 005°48'3 6.4
2017-Jun-14 20:30N 54°53' W 005°43'918.6
2017-Jun-14 20:00N 54°57' W 005°29'918.6
2017-Jun-14 19:30N 55°01' W 005°14'714.3
2017-Jun-14 19:00N 54°59' W 005°02'1 2.7
2017-Jun-14 18:30N 54°58' W 005°01'0 0.0
2017-Jun-14 18:00N 54°58' W 005°01'0 0.4
2017-Jun-14 17:30N 54°58' W 005°01'612.4
2017-Jun-14 17:01N 55°01' W 005°10'1019.4
2017-Jun-14 16:31N 54°57' W 005°25'918.5
2017-Jun-14 16:00N 54°53' W 005°40'510.7
2017-Jun-14 15:30N 54°51' W 005°48'0 0.0
2017-Jun-14 15:00N 54°51' W 005°48'3 3.5
2017-Jun-14 14:00N 54°53' W 005°43'918.5
2017-Jun-14 13:30N 54°57' W 005°28'918.5
2017-Jun-14 13:00N 55°01' W 005°14'714.0
2017-Jun-14 12:30N 54°59' W 005°02'1 2.1
2017-Jun-14 12:00N 54°58' W 005°01'0 0.0
2017-Jun-14 11:30N 54°58' W 005°01'510.1
2017-Jun-14 11:01N 55°02' W 005°06'918.6
2017-Jun-14 10:30N 54°58' W 005°21'1019.4
2017-Jun-14 10:00N 54°54' W 005°37'714.2
2017-Jun-14 09:30N 54°51' W 005°48'0 0.0
2017-Jun-14 09:00N 54°51' W 005°48'0 0.0
2017-Jun-14 08:30N 54°51' W 005°48'611.5
2017-Jun-14 08:00N 54°54' W 005°39'918.9
2017-Jun-14 07:31N 54°58' W 005°25'918.4
2017-Jun-14 07:00N 55°02' W 005°10'612.7
2017-Jun-14 06:31N 54°58' W 005°01'0 0.0
2017-Jun-14 06:01N 54°58' W 005°01'0 0.0
2017-Jun-14 05:30N 54°58' W 005°01'0 0.3
2017-Jun-14 05:01N 54°58' W 005°01'611.7
2017-Jun-14 04:31N 55°01' W 005°09'918.1
2017-Jun-14 04:01N 54°58' W 005°24'917.7
2017-Jun-14 03:30N 54°54' W 005°38'713.2
2017-Jun-14 03:00N 54°51' W 005°48'0 0.1
2017-Jun-14 02:30N 54°51' W 005°48'0 0.0
2017-Jun-14 02:00N 54°51' W 005°48'0 0.0
2017-Jun-14 01:30N 54°51' W 005°48'0 0.0
2017-Jun-14 01:00N 54°51' W 005°48'2 3.8
2017-Jun-14 00:30N 54°52' W 005°46'917.8
2017-Jun-14 00:00N 54°57' W 005°33'917.7
2017-Jun-13 23:30N 54°60' W 005°18'914.9
2017-Jun-13 22:56N 54°59' W 005°03'2 4.6
2017-Jun-13 22:30N 54°58' W 005°01'0 0.0
2017-Jun-13 22:00N 54°58' W 005°01'0 0.0
2017-Jun-13 21:30N 54°58' W 005°01'0 0.1
2017-Jun-13 21:00N 54°58' W 005°01'5 9.3
2017-Jun-13 20:30N 55°01' W 005°06'  
Track history (hours):
 
Tides and Currents Weather Stations Pressure Air Temp Water Temp Dewpoint Dewpoint Depression Visibility Wind Speed Wind Dir Waves Ship Positions

European Seaway

Operator: P & O Ferries

Last reported at 2017-Jun-23 20:30 UTC. Time now 2017-Jun-23 20:28 UTC.
Position N 50°58' E 001°52'.

Length 179 m; draft 5.6 m.

Type: Passenger vessel. MMSI: 232001040.

Date/timePositionNaut miles runAvg speedWind from/ knotsBaromVisibWave heightAir tempDewpointWater temp
2017-Jun-23 20:30N 50°58' E 001°52'0 0.0
2017-Jun-23 20:00N 50°58' E 001°52'0 0.0
2017-Jun-23 19:30N 50°58' E 001°52'0 0.2
2017-Jun-23 19:00N 50°58' E 001°52'3 5.4
2017-Jun-23 18:30N 50°58' E 001°47'816.2
2017-Jun-23 18:00N 51°00' E 001°35'918.0
2017-Jun-23 17:31N 51°06' E 001°24'3 5.6
2017-Jun-23 17:00N 51°07' E 001°20'0 0.0
2017-Jun-23 16:30N 51°07' E 001°20'2 3.6
2017-Jun-23 16:00N 51°07' E 001°23'815.0
2017-Jun-23 15:30N 51°03' E 001°33'918.5
2017-Jun-23 15:01N 50°58' E 001°45'4 7.9
2017-Jun-23 14:30N 50°58' E 001°52'0 0.0
2017-Jun-23 14:00N 50°58' E 001°52'1 1.2
2017-Jun-23 13:31N 50°58' E 001°51'917.5
2017-Jun-23 13:01N 50°60' E 001°37'918.5
2017-Jun-23 12:31N 51°05' E 001°25'4 7.9
2017-Jun-23 12:00N 51°07' E 001°20'0 0.0
2017-Jun-23 11:30N 51°07' E 001°20'0 0.0
2017-Jun-23 11:00N 51°07' E 001°20'611.6
2017-Jun-23 10:30N 51°06' E 001°29'917.4
2017-Jun-23 10:00N 51°01' E 001°40'714.3
2017-Jun-23 09:30N 50°58' E 001°51'0 1.0
2017-Jun-23 09:00N 50°58' E 001°52'0 0.0
2017-Jun-23 08:30N 50°58' E 001°52'0 0.0
2017-Jun-23 08:00N 50°58' E 001°52'0 0.0
2017-Jun-23 07:30N 50°58' E 001°52'0 0.0
2017-Jun-23 07:00N 50°58' E 001°52'0 0.0
2017-Jun-23 06:30N 50°58' E 001°52'0 0.0
2017-Jun-23 06:00N 50°58' E 001°52'0 0.0
2017-Jun-23 05:30N 50°58' E 001°52'0 0.0
2017-Jun-23 05:00N 50°58' E 001°52'0 0.0
2017-Jun-23 04:30N 50°58' E 001°52'0 0.0
2017-Jun-23 04:00N 50°58' E 001°52'0 0.0
2017-Jun-23 03:30N 50°58' E 001°52'0 0.0
2017-Jun-23 03:00N 50°58' E 001°52'0 0.0
2017-Jun-23 02:30N 50°58' E 001°52'0 0.0
2017-Jun-23 02:00N 50°58' E 001°52'0 0.0
2017-Jun-23 01:30N 50°58' E 001°52'0 0.0
2017-Jun-23 01:00N 50°58' E 001°52'0 0.0
2017-Jun-23 00:30N 50°58' E 001°52'0 0.0
2017-Jun-23 00:00N 50°58' E 001°52'0 0.0
2017-Jun-22 23:30N 50°58' E 001°52'0 0.0
2017-Jun-22 23:00N 50°58' E 001°52'0 0.0
2017-Jun-22 22:30N 50°58' E 001°52'0 0.0
2017-Jun-22 22:00N 50°58' E 001°52'0 0.0
2017-Jun-22 21:30N 50°58' E 001°52'0 0.0
2017-Jun-22 21:00N 50°58' E 001°52'0 0.0
2017-Jun-22 20:30N 50°58' E 001°52'0 0.0
2017-Jun-22 20:00N 50°58' E 001°52'0 0.0
2017-Jun-22 19:30N 50°58' E 001°52'0 0.0
2017-Jun-22 19:00N 50°58' E 001°52'4 8.4
2017-Jun-22 18:31N 50°58' E 001°45'816.4
2017-Jun-22 18:00N 50°59' E 001°32'917.5
2017-Jun-22 17:30N 51°06' E 001°23'2 4.7
2017-Jun-22 17:00N 51°07' E 001°20'0 0.0
2017-Jun-22 16:30N 51°07' E 001°20'1 1.6
2017-Jun-22 16:01N 51°07' E 001°21'816.8
2017-Jun-22 15:31N 51°03' E 001°33'917.9
2017-Jun-22 15:00N 50°58' E 001°45'4 4.3
2017-Jun-22 14:00N 50°58' E 001°52'1 2.1
2017-Jun-22 13:30N 50°58' E 001°50'816.4
2017-Jun-22 13:00N 51°01' E 001°38'918.4
2017-Jun-22 12:30N 51°05' E 001°25'4 7.3
2017-Jun-22 12:00N 51°07' E 001°20'0 0.0
2017-Jun-22 11:30N 51°07' E 001°20'0 0.1
2017-Jun-22 11:00N 51°07' E 001°20'612.7
2017-Jun-22 10:30N 51°05' E 001°29'917.0
2017-Jun-22 10:00N 51°00' E 001°41'713.9
2017-Jun-22 09:31N 50°58' E 001°51'0 0.7
2017-Jun-22 09:01N 50°58' E 001°52'0 0.0
2017-Jun-22 08:31N 50°58' E 001°52'0 0.0
2017-Jun-22 08:01N 50°58' E 001°52'0 0.0
2017-Jun-22 07:30N 50°58' E 001°52'0 0.0
2017-Jun-22 07:00N 50°58' E 001°52'0 0.0
2017-Jun-22 06:30N 50°58' E 001°52'0 0.0
2017-Jun-22 06:01N 50°58' E 001°52'0 0.0
2017-Jun-22 05:30N 50°58' E 001°52'0 0.0
2017-Jun-22 05:01N 50°58' E 001°52'0 0.0
2017-Jun-22 04:30N 50°58' E 001°52'0 0.0
2017-Jun-22 04:00N 50°58' E 001°52'0 0.0
2017-Jun-22 03:30N 50°58' E 001°52'0 0.0
2017-Jun-22 03:00N 50°58' E 001°52'0 0.0
2017-Jun-22 02:31N 50°58' E 001°52'0 0.0
2017-Jun-22 02:01N 50°58' E 001°52'0 0.0
2017-Jun-22 01:31N 50°58' E 001°52'0 0.0
2017-Jun-22 01:01N 50°58' E 001°52'0 0.0
2017-Jun-22 00:31N 50°58' E 001°52'0 0.0
2017-Jun-22 00:01N 50°58' E 001°52'0 0.0
2017-Jun-21 23:31N 50°58' E 001°52'0 0.0
2017-Jun-21 23:01N 50°58' E 001°52'0 0.0
2017-Jun-21 22:30N 50°58' E 001°52'0 0.0
2017-Jun-21 22:01N 50°58' E 001°52'0 0.0
2017-Jun-21 21:30N 50°58' E 001°52'0 0.0
2017-Jun-21 21:00N 50°58' E 001°52'0 0.0
2017-Jun-21 20:31N 50°58' E 001°52'0 0.0
2017-Jun-21 20:01N 50°58' E 001°52'3 5.6
2017-Jun-21 19:31N 50°58' E 001°47'815.9
2017-Jun-21 19:00N 50°60' E 001°35'815.1
2017-Jun-21 18:30N 51°05' E 001°26'4 9.0
2017-Jun-21 18:01N 51°08' E 001°20'0 0.0
2017-Jun-21 17:30N 51°08' E 001°20'0 0.0
2017-Jun-21 17:01N 51°08' E 001°20'0 0.0
2017-Jun-21 16:31N 51°08' E 001°20'0 0.0
2017-Jun-21 16:00N 51°08' E 001°20'0 0.0
2017-Jun-21 15:30N 51°08' E 001°20'0 0.0
2017-Jun-21 15:00N 51°08' E 001°20'0 0.0
2017-Jun-21 14:00N 51°08' E 001°20'0 0.0
2017-Jun-21 13:30N 51°08' E 001°20'0 0.0
2017-Jun-21 13:01N 51°08' E 001°20'0 0.0
2017-Jun-21 12:31N 51°08' E 001°20'0 0.0
2017-Jun-21 12:00N 51°08' E 001°20'0 0.7
2017-Jun-21 11:30N 51°07' E 001°20'0 0.7
2017-Jun-21 11:00N 51°07' E 001°20'714.2
2017-Jun-21 10:30N 51°02' E 001°27'917.0
2017-Jun-21 10:00N 50°53' E 001°27'918.4
2017-Jun-21 09:30N 50°44' E 001°23'917.6
2017-Jun-21 09:00N 50°37' E 001°15'917.3
2017-Jun-21 08:30N 50°31' E 001°05'2617.0
2017-Jun-21 06:59N 50°23' E 000°27'817.1
2017-Jun-21 06:30N 50°21' E 000°14'817.1
2017-Jun-21 06:00N 50°19' E 000°01'1817.1
2017-Jun-21 04:59N 50°15' W 000°26'817.1
2017-Jun-21 04:30N 50°14' W 000°38'917.1
2017-Jun-21 04:00N 50°12' W 000°51'2217.2
2017-Jun-21 02:43N 50°07' W 001°25'417.4
2017-Jun-21 02:30N 50°06' W 001°31'917.6
2017-Jun-21 01:59N 50°04' W 001°44'918.0
2017-Jun-21 01:31N 50°01' W 001°57'917.8
2017-Jun-21 01:00N 49°59' W 002°10'917.4
2017-Jun-21 00:31N 49°56' W 002°23'713.4
2017-Jun-21 00:00N 49°55' W 002°33'612.0
2017-Jun-20 23:30N 49°53' W 002°42'611.8
2017-Jun-20 23:00N 49°51' W 002°51'612.0
2017-Jun-20 22:30N 49°50' W 002°60'612.4
2017-Jun-20 22:00N 49°48' W 003°09'612.6
2017-Jun-20 21:30N 49°48' W 003°19'612.5
2017-Jun-20 21:00N 49°48' W 003°29'612.8
2017-Jun-20 20:30N 49°48' W 003°39'613.0
2017-Jun-20 20:00N 49°49' W 003°49'713.1
2017-Jun-20 19:30N 49°49' W 003°59'713.2
2017-Jun-20 19:00N 49°49' W 004°09'713.4
2017-Jun-20 18:30N 49°49' W 004°19'713.5
2017-Jun-20 18:00N 49°48' W 004°30'713.5
2017-Jun-20 17:30N 49°48' W 004°40'713.6
2017-Jun-20 17:00N 49°49' W 004°51'713.9
2017-Jun-20 16:30N 49°49' W 005°01'714.2
2017-Jun-20 16:00N 49°49' W 005°12'714.3
2017-Jun-20 15:30N 49°49' W 005°24'714.3
2017-Jun-20 15:00N 49°49' W 005°35'1414.3
2017-Jun-20 14:00N 49°53' W 005°56'612.5
2017-Jun-20 13:30N 49°58' W 006°02'814.3
2017-Jun-20 12:57N 50°06' W 006°01'613.9
2017-Jun-20 12:30N 50°12' W 006°01'713.7
2017-Jun-20 12:01N 50°19' W 006°01'713.8
2017-Jun-20 11:30N 50°26' W 005°60'713.8
2017-Jun-20 11:00N 50°32' W 005°60'714.0
2017-Jun-20 10:30N 50°39' W 005°60'714.3
2017-Jun-20 10:01N 50°47' W 005°60'714.4
2017-Jun-20 09:31N 50°54' W 006°00'714.6
2017-Jun-20 09:01N 51°01' W 006°00'714.7
2017-Jun-20 08:31N 51°08' W 006°00'714.6
2017-Jun-20 08:00N 51°16' W 006°01'714.7
2017-Jun-20 07:30N 51°23' W 006°01'714.6
2017-Jun-20 07:00N 51°30' W 006°01'814.3
2017-Jun-20 06:27N 51°38' W 006°00'614.2
2017-Jun-20 06:01N 51°44' W 005°58'813.9
2017-Jun-20 05:27N 51°52' W 005°55'913.4
2017-Jun-20 04:49N 52°00' W 005°52'11214.3
2017-Jun-19 20:59N 53°50' W 005°16'814.8
2017-Jun-19 20:28N 53°58' W 005°14'714.7
2017-Jun-19 20:01N 54°04' W 005°12'714.7
2017-Jun-19 19:31N 54°11' W 005°10'714.6
2017-Jun-19 19:01N 54°19' W 005°08'714.7
2017-Jun-19 18:31N 54°26' W 005°08'714.2
2017-Jun-19 18:01N 54°33' W 005°13'815.4
2017-Jun-19 17:31N 54°39' W 005°20'816.0
2017-Jun-19 17:01N 54°45' W 005°28'815.8
2017-Jun-19 16:31N 54°50' W 005°39'510.5
2017-Jun-19 16:00N 54°51' W 005°48'0 0.6
2017-Jun-19 15:30N 54°51' W 005°48'0 0.0
2017-Jun-19 15:00N 54°51' W 005°48'0 0.0
2017-Jun-19 14:30N 54°51' W 005°48'0 0.0
2017-Jun-19 13:30N 54°51' W 005°48'0 0.0
2017-Jun-19 13:00N 54°51' W 005°48'0 0.0
2017-Jun-19 12:30N 54°51' W 005°48'0 0.0
2017-Jun-19 12:00N 54°51' W 005°48'0 0.0
2017-Jun-19 11:30N 54°51' W 005°48'0 0.0
2017-Jun-19 11:00N 54°51' W 005°48'0 0.0
2017-Jun-19 10:30N 54°51' W 005°48'0 0.0
2017-Jun-19 10:00N 54°51' W 005°48'0 0.0
2017-Jun-19 09:30N 54°51' W 005°48'0 0.2
2017-Jun-19 09:01N 54°51' W 005°48'0 0.1
2017-Jun-19 08:31N 54°51' W 005°48'1 2.4
2017-Jun-19 08:00N 54°52' W 005°47'1019.7
2017-Jun-19 07:30N 54°56' W 005°32'1019.8
2017-Jun-19 07:00N 55°00' W 005°16'815.0
2017-Jun-19 06:30N 54°59' W 005°03'2 3.6
2017-Jun-19 06:01N 54°58' W 005°01'0 0.0
2017-Jun-19 05:30N 54°58' W 005°01'0 0.0
2017-Jun-19 05:01N 54°58' W 005°01'5 7.9
2017-Jun-19 04:23N 55°02' W 005°06'717.6
2017-Jun-19 04:00N 54°59' W 005°17'918.8
2017-Jun-19 03:30N 54°55' W 005°32'1019.1
2017-Jun-19 03:00N 54°52' W 005°48'1 1.6
2017-Jun-19 02:31N 54°51' W 005°48'0 0.0
2017-Jun-19 02:00N 54°51' W 005°48'0 0.0
2017-Jun-19 01:30N 54°51' W 005°48'0 0.0
2017-Jun-19 01:01N 54°51' W 005°48'0 0.0
2017-Jun-19 00:30N 54°51' W 005°48'0 0.0
2017-Jun-19 00:00N 54°51' W 005°48'2 4.3
2017-Jun-18 23:30N 54°52' W 005°46'1019.3
2017-Jun-18 23:00N 54°58' W 005°31'1019.5
2017-Jun-18 22:30N 55°01' W 005°15'714.7
2017-Jun-18 22:00N 54°59' W 005°03'2 3.2
2017-Jun-18 21:30N 54°58' W 005°01'0 0.0
2017-Jun-18 21:01N 54°58' W 005°01'5 8.7
2017-Jun-18 20:28N 55°02' W 005°06'918.9
2017-Jun-18 20:01N 54°59' W 005°20'918.9
2017-Jun-18 19:31N 54°55' W 005°35'816.4
2017-Jun-18 19:01N 54°51' W 005°48'0 0.3
2017-Jun-18 18:30N 54°51' W 005°48'0 0.0
2017-Jun-18 18:00N 54°51' W 005°48'0 0.0
2017-Jun-18 17:30N 54°51' W 005°48'3 6.3
2017-Jun-18 17:00N 54°53' W 005°43'1019.1
2017-Jun-18 16:30N 54°57' W 005°28'1019.3
2017-Jun-18 16:00N 55°01' W 005°13'714.1
2017-Jun-18 15:30N 54°58' W 005°02'1 1.9
2017-Jun-18 15:00N 54°58' W 005°01'0 0.0
2017-Jun-18 14:00N 54°58' W 005°01'3 6.8
2017-Jun-18 13:30N 55°01' W 005°04'816.2
2017-Jun-18 13:00N 54°59' W 005°18'1019.0
2017-Jun-18 12:30N 54°55' W 005°33'918.0
2017-Jun-18 12:00N 54°51' W 005°48'0 0.9
2017-Jun-18 11:30N 54°51' W 005°48'0 0.0
2017-Jun-18 11:00N 54°51' W 005°48'0 0.0
2017-Jun-18 10:30N 54°51' W 005°48'0 0.0
2017-Jun-18 10:00N 54°51' W 005°48'0 0.0
2017-Jun-18 09:30N 54°51' W 005°48'0 0.0
2017-Jun-18 09:00N 54°51' W 005°48'0 0.0
2017-Jun-18 08:30N 54°51' W 005°48'2 3.8
2017-Jun-18 08:00N 54°52' W 005°46'1019.8
2017-Jun-18 07:30N 54°56' W 005°30'1019.2
2017-Jun-18 07:00N 55°00' W 005°15'714.8
2017-Jun-18 06:30N 54°59' W 005°03'1 3.0
2017-Jun-18 06:01N 54°58' W 005°01'0 0.0
2017-Jun-18 05:30N 54°58' W 005°01'0 0.0
2017-Jun-18 05:01N 54°58' W 005°01'0 0.0
2017-Jun-18 04:31N 54°58' W 005°01'0 0.0
2017-Jun-18 04:00N 54°58' W 005°01'0 0.0
2017-Jun-18 03:31N 54°58' W 005°01'0 0.0
2017-Jun-18 03:01N 54°58' W 005°01'0 0.0
2017-Jun-18 02:31N 54°58' W 005°01'0 0.0
2017-Jun-18 02:01N 54°58' W 005°01'0 0.0
2017-Jun-18 01:31N 54°58' W 005°01'0 0.0
2017-Jun-18 01:00N 54°58' W 005°01'0 0.0
2017-Jun-18 00:30N 54°58' W 005°01'0 0.0
2017-Jun-18 00:01N 54°58' W 005°01'0 0.0
2017-Jun-17 23:30N 54°58' W 005°01'0 0.0
2017-Jun-17 23:01N 54°58' W 005°01'0 0.0
2017-Jun-17 22:30N 54°58' W 005°01'0 0.0
2017-Jun-17 22:00N 54°58' W 005°01'0 0.0
2017-Jun-17 21:31N 54°58' W 005°01'0 0.0
2017-Jun-17 21:01N 54°58' W 005°01'5 9.6
2017-Jun-17 20:30N 55°02' W 005°06'1019.5
2017-Jun-17 20:00N 54°58' W 005°22'1019.3
2017-Jun-17 19:30N 54°54' W 005°37'713.8
2017-Jun-17 19:00N 54°51' W 005°48'0 0.0
2017-Jun-17 18:30N 54°51' W 005°48'0 0.0
2017-Jun-17 18:00N 54°51' W 005°48'0 0.0
2017-Jun-17 17:30N 54°51' W 005°48'4 7.5
2017-Jun-17 17:01N 54°53' W 005°43'1019.3
2017-Jun-17 16:31N 54°57' W 005°27'1019.3
2017-Jun-17 16:00N 55°01' W 005°12'713.8
2017-Jun-17 15:31N 54°58' W 005°01'0 0.4
2017-Jun-17 15:01N 54°58' W 005°01'1 1.9
2017-Jun-17 14:30N 54°58' W 005°02'1515.5
2017-Jun-17 13:30N 54°56' W 005°29'1019.6
2017-Jun-17 13:00N 54°52' W 005°45'2 4.7
2017-Jun-17 12:30N 54°51' W 005°48'0 0.0
2017-Jun-17 12:00N 54°51' W 005°48'0 0.0
2017-Jun-17 11:30N 54°51' W 005°48'3 6.9
2017-Jun-17 11:00N 54°53' W 005°43'918.4
2017-Jun-17 10:31N 54°57' W 005°29'918.2
2017-Jun-17 10:01N 55°00' W 005°14'714.2
2017-Jun-17 09:31N 54°59' W 005°02'1 2.4
2017-Jun-17 09:00N 54°58' W 005°01'0 0.0
2017-Jun-17 08:30N 54°58' W 005°01'5 8.4
2017-Jun-17 07:55N 55°02' W 005°06'819.1
2017-Jun-17 07:31N 54°59' W 005°19'1019.1
2017-Jun-17 07:01N 54°55' W 005°34'917.1
2017-Jun-17 06:30N 54°51' W 005°48'0 1.0
2017-Jun-17 06:00N 54°51' W 005°48'0 0.0
2017-Jun-17 05:30N 54°51' W 005°48'0 0.0
2017-Jun-17 05:00N 54°51' W 005°48'4 8.1
2017-Jun-17 04:30N 54°53' W 005°42'918.6
2017-Jun-17 04:00N 54°57' W 005°28'918.5
2017-Jun-17 03:30N 55°01' W 005°13'714.0
2017-Jun-17 03:00N 54°58' W 005°02'1 1.4
2017-Jun-17 02:30N 54°58' W 005°01'0 0.0
2017-Jun-17 02:00N 54°58' W 005°01'0 0.0
2017-Jun-17 01:30N 54°58' W 005°01'0 0.1
2017-Jun-17 01:00N 54°58' W 005°01'510.4
2017-Jun-17 00:31N 55°02' W 005°07'917.5
2017-Jun-17 00:00N 54°58' W 005°21'1019.7
2017-Jun-16 23:30N 54°54' W 005°36'714.9
2017-Jun-16 23:00N 54°51' W 005°48'0 0.0
2017-Jun-16 22:30N 54°51' W 005°48'0 0.0
2017-Jun-16 22:00N 54°51' W 005°48'0 0.0
2017-Jun-16 21:30N 54°51' W 005°48'0 0.0
2017-Jun-16 21:00N 54°51' W 005°48'3 5.0
2017-Jun-16 20:30N 54°53' W 005°45'918.9
2017-Jun-16 20:01N 54°57' W 005°30'918.6
2017-Jun-16 19:31N 55°00' W 005°15'714.4
2017-Jun-16 19:00N 54°59' W 005°03'2 3.4
2017-Jun-16 18:30N 54°58' W 005°01'0 0.0
2017-Jun-16 18:00N 54°58' W 005°01'0 0.0
2017-Jun-16 17:30N 54°58' W 005°01'5 7.1
2017-Jun-16 16:49N 55°02' W 005°06'619.1
2017-Jun-16 16:30N 54°59' W 005°16'1019.3
2017-Jun-16 16:00N 54°55' W 005°31'1019.3
2017-Jun-16 15:31N 54°52' W 005°47'1 3.0
2017-Jun-16 15:00N 54°51' W 005°48'3 2.8
2017-Jun-16 14:00N 54°53' W 005°44'918.6
2017-Jun-16 13:30N 54°57' W 005°30'1018.9
2017-Jun-16 13:00N 55°00' W 005°14'713.9
2017-Jun-16 12:30N 54°59' W 005°02'1 2.7
2017-Jun-16 12:00N 54°58' W 005°01'0 0.0
2017-Jun-16 11:30N 54°58' W 005°01'6 9.5
2017-Jun-16 10:55N 55°02' W 005°08'818.5
2017-Jun-16 10:30N 54°58' W 005°20'1019.9
2017-Jun-16 09:59N 54°54' W 005°37'714.9
2017-Jun-16 09:31N 54°51' W 005°48'0 0.2
2017-Jun-16 09:00N 54°51' W 005°48'0 0.0
2017-Jun-16 08:30N 54°51' W 005°48'5 9.6
2017-Jun-16 08:00N 54°53' W 005°41'918.3
2017-Jun-16 07:30N 54°57' W 005°26'917.8
2017-Jun-16 07:00N 55°01' W 005°12'714.1
2017-Jun-16 06:30N 54°58' W 005°01'0 0.6
2017-Jun-16 06:00N 54°58' W 005°01'0 0.0
2017-Jun-16 05:30N 54°58' W 005°01'0 0.3
2017-Jun-16 05:00N 54°58' W 005°01'611.9
2017-Jun-16 04:30N 55°02' W 005°09'1019.3
2017-Jun-16 04:01N 54°57' W 005°24'1019.1
2017-Jun-16 03:31N 54°54' W 005°39'611.1
2017-Jun-16 03:00N 54°51' W 005°48'0 0.0
2017-Jun-16 02:31N 54°51' W 005°48'0 0.0
2017-Jun-16 02:00N 54°51' W 005°48'0 0.0
2017-Jun-16 01:31N 54°51' W 005°48'0 0.0
2017-Jun-16 01:01N 54°51' W 005°48'4 8.3
2017-Jun-16 00:31N 54°53' W 005°42'918.3
2017-Jun-16 00:01N 54°58' W 005°28'918.5
2017-Jun-15 23:31N 55°01' W 005°13'713.1
2017-Jun-15 23:00N 54°59' W 005°02'1 2.6
2017-Jun-15 22:30N 54°58' W 005°01'0 0.0
2017-Jun-15 22:00N 54°58' W 005°01'0 0.0
2017-Jun-15 21:30N 54°58' W 005°01'0 0.0
2017-Jun-15 21:00N 54°58' W 005°01'5 8.9
2017-Jun-15 20:27N 55°02' W 005°07'818.5
2017-Jun-15 20:01N 54°59' W 005°20'1019.4
2017-Jun-15 19:31N 54°55' W 005°35'816.4
2017-Jun-15 19:00N 54°51' W 005°48'0 0.3
2017-Jun-15 18:30N 54°51' W 005°48'0 0.0
2017-Jun-15 18:00N 54°51' W 005°48'0 0.0
2017-Jun-15 17:30N 54°51' W 005°48'612.7
2017-Jun-15 17:00N 54°54' W 005°39'918.6
2017-Jun-15 16:30N 54°59' W 005°25'918.1
2017-Jun-15 16:00N 55°02' W 005°10'612.6
2017-Jun-15 15:30N 54°58' W 005°01'0 0.0
2017-Jun-15 15:00N 54°58' W 005°01'6 5.8
2017-Jun-15 14:00N 55°02' W 005°09'1019.6
2017-Jun-15 13:30N 54°57' W 005°24'1020.3
2017-Jun-15 13:00N 54°53' W 005°40'510.0
2017-Jun-15 12:30N 54°51' W 005°48'0 0.0
2017-Jun-15 12:00N 54°51' W 005°48'0 0.2
2017-Jun-15 11:30N 54°51' W 005°48'714.6
2017-Jun-15 11:00N 54°55' W 005°37'917.8
2017-Jun-15 10:30N 54°58' W 005°23'918.0
2017-Jun-15 10:00N 55°02' W 005°08'611.5
2017-Jun-15 09:30N 54°58' W 005°01'0 0.0
2017-Jun-15 09:00N 54°58' W 005°01'0 0.0
2017-Jun-15 08:30N 54°58' W 005°01'5 9.9
2017-Jun-15 07:58N 55°01' W 005°07'918.8
2017-Jun-15 07:30N 54°58' W 005°21'1019.2
2017-Jun-15 07:00N 54°54' W 005°37'714.3
2017-Jun-15 06:31N 54°51' W 005°48'0 0.1
2017-Jun-15 06:00N 54°51' W 005°48'0 0.0
2017-Jun-15 05:30N 54°51' W 005°48'0 0.4
2017-Jun-15 05:01N 54°51' W 005°48'815.5
2017-Jun-15 04:30N 54°55' W 005°36'918.0
2017-Jun-15 04:00N 54°59' W 005°22'917.7
2017-Jun-15 03:30N 55°02' W 005°07'611.2
2017-Jun-15 03:00N 54°58' W 005°01'0 0.0
2017-Jun-15 02:30N 54°58' W 005°01'0 0.0
2017-Jun-15 02:00N 54°58' W 005°01'0 0.0
2017-Jun-15 01:30N 54°58' W 005°01'0 0.1
2017-Jun-15 01:00N 54°58' W 005°01'5 9.0
2017-Jun-15 00:28N 55°02' W 005°06'817.9
2017-Jun-15 00:01N 54°58' W 005°19'1019.1
2017-Jun-14 23:30N 54°54' W 005°34'816.9
2017-Jun-14 23:00N 54°51' W 005°48'0 0.2
2017-Jun-14 22:30N 54°51' W 005°48'0 0.0
2017-Jun-14 22:01N 54°51' W 005°48'0 0.0
2017-Jun-14 21:30N 54°51' W 005°48'0 0.0
2017-Jun-14 21:01N 54°51' W 005°48'3 6.4
2017-Jun-14 20:30N 54°53' W 005°43'918.6
2017-Jun-14 20:00N 54°57' W 005°29'918.6
2017-Jun-14 19:30N 55°01' W 005°14'714.3
2017-Jun-14 19:00N 54°59' W 005°02'1 2.7
2017-Jun-14 18:30N 54°58' W 005°01'0 0.0
2017-Jun-14 18:00N 54°58' W 005°01'0 0.4
2017-Jun-14 17:30N 54°58' W 005°01'612.4
2017-Jun-14 17:01N 55°01' W 005°10'1019.4
2017-Jun-14 16:31N 54°57' W 005°25'918.5
2017-Jun-14 16:00N 54°53' W 005°40'510.7
2017-Jun-14 15:30N 54°51' W 005°48'0 0.0
2017-Jun-14 15:00N 54°51' W 005°48'3 3.5
2017-Jun-14 14:00N 54°53' W 005°43'918.5
2017-Jun-14 13:30N 54°57' W 005°28'918.5
2017-Jun-14 13:00N 55°01' W 005°14'714.0
2017-Jun-14 12:30N 54°59' W 005°02'1 2.1
2017-Jun-14 12:00N 54°58' W 005°01'0 0.0
2017-Jun-14 11:30N 54°58' W 005°01'510.1
2017-Jun-14 11:01N 55°02' W 005°06'918.6
2017-Jun-14 10:30N 54°58' W 005°21'1019.4
2017-Jun-14 10:00N 54°54' W 005°37'714.2
2017-Jun-14 09:30N 54°51' W 005°48'0 0.0
2017-Jun-14 09:00N 54°51' W 005°48'0 0.0
2017-Jun-14 08:30N 54°51' W 005°48'611.5
2017-Jun-14 08:00N 54°54' W 005°39'918.9
2017-Jun-14 07:31N 54°58' W 005°25'918.4
2017-Jun-14 07:00N 55°02' W 005°10'612.7
2017-Jun-14 06:31N 54°58' W 005°01'0 0.0
2017-Jun-14 06:01N 54°58' W 005°01'0 0.0
2017-Jun-14 05:30N 54°58' W 005°01'0 0.3
2017-Jun-14 05:01N 54°58' W 005°01'611.7
2017-Jun-14 04:31N 55°01' W 005°09'918.1
2017-Jun-14 04:01N 54°58' W 005°24'917.7
2017-Jun-14 03:30N 54°54' W 005°38'713.2
2017-Jun-14 03:00N 54°51' W 005°48'0 0.1
2017-Jun-14 02:30N 54°51' W 005°48'0 0.0
2017-Jun-14 02:00N 54°51' W 005°48'0 0.0
2017-Jun-14 01:30N 54°51' W 005°48'0 0.0
2017-Jun-14 01:00N 54°51' W 005°48'2 3.8
2017-Jun-14 00:30N 54°52' W 005°46'917.8
2017-Jun-14 00:00N 54°57' W 005°33'917.7
2017-Jun-13 23:30N 54°60' W 005°18'914.9
2017-Jun-13 22:56N 54°59' W 005°03'2 4.6
2017-Jun-13 22:30N 54°58' W 005°01'0 0.0
2017-Jun-13 22:00N 54°58' W 005°01'0 0.0
2017-Jun-13 21:30N 54°58' W 005°01'0 0.1
2017-Jun-13 21:00N 54°58' W 005°01'5 9.3
2017-Jun-13 20:30N 55°01' W 005°06'  

Dump ship's entire track history